Main page
METAR-TAF:

METAR-TAF

Airports :

Jaipur International Airport

Jaipur, India

latitude: 26-49N, longitude: 075-48E, elevation: 385 m

Current weather observation

The report was made 14 minutes ago, at 08:00 UTC
Wind 5 kt from the West
Temperature 36°C
Humidity 47%
Pressure 1000 hPa
Visibility: 5000 m
Scattered clouds at a height of 3000 ft
Scattered clouds at a height of 3500 ft
haze

METAR: VIJP 110800Z 28005KT 5000 HZ SCT030 SCT035 36/23 Q1000 NOSIG

Time: 13:44 (08:14 UTC)

Forecast

The report was made 3 hours and 14 minutes ago, at 05:00 UTC
Forecast valid from 11 at 06 UTC to 11 at 15 UTC
Wind 12 kt from the West
Visibility: 5000 m
Few clouds at a height of 3000 ft
Scattered clouds at a height of 10000 ft
haze
Becoming
from 11 at 13 UTC to 11 at 15 UTC
Wind 8 kt from the West/Southwest
Visibility: 3000 m
haze

TAF: VIJP 110500Z 1106/1115 27012KT 5000 HZ FEW030 SCT100 BECMG 1113/1115 25008KT 3000 HZ

Weather observations and forecasts of more than 4000 airports (METAR and TAF reports).

The available stations are represented by yellow and red dots on the map.

Hover mouse over dot to see the name of the station.

Then click to see weather observations and forecasts.

To change the map : click on the green buttons with a black cross to zoom in, on the green button with a dash to zoom out, or on the green arrows for adjacent maps.


METAR-TAF: